createdAt,value
2017-11-23T00:00:02.990Z,97197.16
2017-11-23T00:00:34.631Z,97200.52
2017-11-23T00:01:06.237Z,97202.22
2017-11-23T00:01:37.849Z,97188.66
2017-11-23T00:02:09.562Z,97198.03
2017-11-23T00:02:41.212Z,97193.80
2017-11-23T00:03:12.841Z,97198.89
2017-11-23T00:03:44.482Z,97205.26
2017-11-23T00:04:16.089Z,97200.98
2017-11-23T00:04:47.700Z,97198.81
2017-11-23T00:05:19.309Z,97199.66
2017-11-23T00:05:51.049Z,97203.49
2017-11-23T00:06:22.656Z,97201.01
2017-11-23T00:06:54.261Z,97206.09
2017-11-23T00:07:25.976Z,97203.55
2017-11-23T00:07:57.617Z,97202.79
2017-11-23T00:08:29.220Z,97207.56
2017-11-23T00:09:00.869Z,97203.33
2017-11-23T00:09:32.486Z,97205.88
2017-11-23T00:10:04.134Z,97206.66
2017-11-23T00:10:35.745Z,97204.09
2017-11-23T00:11:07.471Z,97203.68
2017-11-23T00:11:39.111Z,97205.38
2017-11-23T00:12:10.721Z,97202.48
2017-11-23T00:12:42.329Z,97200.81
2017-11-23T00:13:14.037Z,97201.28
2017-11-23T00:13:45.676Z,97196.63
2017-11-23T00:14:17.321Z,97201.31
2017-11-23T00:14:48.959Z,97197.06
2017-11-23T00:15:20.610Z,97202.55
2017-11-23T00:15:52.257Z,97202.51
2017-11-23T00:16:23.887Z,97200.42
2017-11-23T00:16:55.496Z,97199.09
2017-11-23T00:17:27.108Z,97199.08
2017-11-23T00:17:58.713Z,97198.16
2017-11-23T00:18:30.456Z,97205.01
2017-11-23T00:19:02.064Z,97200.34
2017-11-23T00:19:33.749Z,97203.31
2017-11-23T00:20:05.389Z,97199.84
2017-11-23T00:20:37.249Z,97206.63
2017-11-23T00:21:08.857Z,97198.96
2017-11-23T00:21:40.464Z,97203.21
2017-11-23T00:22:12.084Z,97203.58
2017-11-23T00:22:43.701Z,97203.56
2017-11-23T00:23:15.540Z,97206.09
2017-11-23T00:23:47.183Z,97203.56
2017-11-23T00:24:18.789Z,97203.89
2017-11-23T00:24:50.409Z,97202.70
2017-11-23T00:25:22.018Z,97205.19
2017-11-23T00:25:53.668Z,97204.35
2017-11-23T00:26:25.391Z,97202.20
2017-11-23T00:26:57.033Z,97206.45
2017-11-23T00:27:28.675Z,97206.38
2017-11-23T00:28:00.317Z,97197.42
2017-11-23T00:28:31.923Z,97204.21
2017-11-23T00:29:03.538Z,97199.52
2017-11-23T00:29:35.153Z,97200.33
2017-11-23T00:30:06.887Z,97199.47
2017-11-23T00:30:38.526Z,97193.03
2017-11-23T00:31:10.172Z,97199.84
2017-11-23T00:31:41.811Z,97192.58
2017-11-23T00:32:13.634Z,97194.26
2017-11-23T00:32:45.241Z,97198.45
2017-11-23T00:33:16.844Z,97190.32
2017-11-23T00:33:48.685Z,97192.45
2017-11-23T00:34:20.327Z,97193.69
2017-11-23T00:34:51.937Z,97193.23
2017-11-23T00:35:23.544Z,97196.70
2017-11-23T00:35:55.156Z,97193.31
2017-11-23T00:36:26.820Z,97200.48
2017-11-23T00:36:58.537Z,97192.45
2017-11-23T00:37:30.178Z,97193.73
2017-11-23T00:38:01.789Z,97200.89
2017-11-23T00:38:33.396Z,97194.10
2017-11-23T00:39:05.004Z,97195.78
2017-11-23T00:39:36.609Z,97191.95
2017-11-23T00:40:08.225Z,97199.17
2017-11-23T00:40:39.852Z,97198.70
2017-11-23T00:41:11.658Z,97191.46
2017-11-23T00:41:43.320Z,97194.88
2017-11-23T00:42:14.956Z,97194.92
2017-11-23T00:42:46.565Z,97193.14
2017-11-23T00:43:18.236Z,97198.69
2017-11-23T00:43:49.843Z,97196.16
2017-11-23T00:44:21.449Z,97196.23
2017-11-23T00:44:53.166Z,97194.00
2017-11-23T00:45:24.806Z,97192.73
2017-11-23T00:45:56.418Z,97191.42
2017-11-23T00:46:28.090Z,97190.13
2017-11-23T00:46:59.701Z,97188.80
2017-11-23T00:47:31.312Z,97184.53
2017-11-23T00:48:02.917Z,97182.41
2017-11-23T00:48:34.529Z,97181.21
2017-11-23T00:49:06.301Z,97185.91
2017-11-23T00:49:37.943Z,97189.73
2017-11-23T00:50:09.584Z,97184.66
2017-11-23T00:50:41.193Z,97185.56
2017-11-23T00:51:12.812Z,97183.03
2017-11-23T00:51:44.420Z,97186.07
2017-11-23T00:52:16.156Z,97189.08
2017-11-23T00:52:47.761Z,97184.85
2017-11-23T00:53:19.380Z,97186.11
2017-11-23T00:53:51.036Z,97182.70
2017-11-23T00:54:22.645Z,97183.52
2017-11-23T00:54:54.361Z,97183.89
2017-11-23T00:55:26.004Z,97181.41
2017-11-23T00:55:57.646Z,97184.38
2017-11-23T00:56:29.287Z,97179.80
2017-11-23T00:57:00.896Z,97183.63
2017-11-23T00:57:32.502Z,97179.81
2017-11-23T00:58:04.112Z,97180.27
2017-11-23T00:58:35.855Z,97186.72
2017-11-23T00:59:07.517Z,97188.85
2017-11-23T00:59:39.138Z,97183.30
2017-11-23T01:00:10.750Z,97182.47
2017-11-23T01:00:42.364Z,97185.02
2017-11-23T01:01:13.980Z,97182.52
2017-11-23T01:01:45.706Z,97184.23
2017-11-23T01:02:17.348Z,97183.03
2017-11-23T01:02:48.957Z,97177.88
2017-11-23T01:03:20.569Z,97178.30
2017-11-23T01:03:52.173Z,97179.95
2017-11-23T01:04:23.825Z,97175.56
2017-11-23T01:04:55.432Z,97174.27
2017-11-23T01:05:27.040Z,97179.70
2017-11-23T01:05:58.645Z,97174.93
2017-11-23T01:06:30.485Z,97175.37
2017-11-23T01:07:02.124Z,97179.18
2017-11-23T01:07:33.767Z,97175.77
2017-11-23T01:08:05.409Z,97174.91
2017-11-23T01:08:37.051Z,97178.69
2017-11-23T01:09:08.693Z,97181.23
2017-11-23T01:09:40.340Z,97175.33
2017-11-23T01:10:11.977Z,97176.14
2017-11-23T01:10:43.618Z,97177.91
2017-11-23T01:11:15.225Z,97174.16
2017-11-23T01:11:46.832Z,97176.64
2017-11-23T01:12:18.543Z,97180.05
2017-11-23T01:12:50.186Z,97176.19
2017-11-23T01:13:21.793Z,97180.11
2017-11-23T01:13:53.415Z,97178.43
2017-11-23T01:14:25.021Z,97175.52
2017-11-23T01:14:56.679Z,97178.03
2017-11-23T01:15:28.396Z,97173.86
2017-11-23T01:16:00.006Z,97178.08
2017-11-23T01:16:31.613Z,97178.94
2017-11-23T01:17:03.224Z,97178.95
2017-11-23T01:17:34.963Z,97182.78
2017-11-23T01:18:06.573Z,97183.30
2017-11-23T01:18:38.180Z,97180.73
2017-11-23T01:19:09.789Z,97179.91
2017-11-23T01:19:41.530Z,97181.65
2017-11-23T01:20:13.176Z,97185.48
2017-11-23T01:20:44.813Z,97183.81
2017-11-23T01:21:16.426Z,97180.83
2017-11-23T01:21:48.865Z,97183.78
2017-11-23T01:22:26.257Z,97182.92
2017-11-23T01:22:57.868Z,97181.65
2017-11-23T01:23:29.782Z,97186.77
2017-11-23T01:24:01.390Z,97182.09
2017-11-23T01:24:32.996Z,97181.69
2017-11-23T01:25:04.645Z,97184.26
2017-11-23T01:25:36.248Z,97174.98
2017-11-23T01:26:07.857Z,97183.14
2017-11-23T01:26:39.465Z,97181.42
2017-11-23T01:27:11.100Z,97184.85
2017-11-23T01:27:42.917Z,97172.67
2017-11-23T01:28:14.560Z,97187.80
2017-11-23T01:28:46.169Z,97188.24
2017-11-23T01:29:17.776Z,97181.00
2017-11-23T01:29:49.385Z,97181.87
2017-11-23T01:30:21.128Z,97184.85
2017-11-23T01:30:52.776Z,97183.57
2017-11-23T01:31:24.409Z,97180.23
2017-11-23T01:31:56.052Z,97184.45
2017-11-23T01:32:27.694Z,97183.57
2017-11-23T01:32:59.304Z,97184.87
2017-11-23T01:33:30.918Z,97181.89
2017-11-23T01:34:02.524Z,97186.98
2017-11-23T01:34:34.263Z,97183.17
2017-11-23T01:35:05.912Z,97188.34
2017-11-23T01:35:37.549Z,97189.22
2017-11-23T01:36:09.188Z,97182.03
2017-11-23T01:36:40.841Z,97186.25
2017-11-23T01:37:12.472Z,97184.60
2017-11-23T01:37:44.113Z,97188.59
2017-11-23T01:38:15.720Z,97186.05
2017-11-23T01:38:47.332Z,97189.47
2017-11-23T01:39:19.040Z,97184.38
2017-11-23T01:39:50.682Z,97184.41
2017-11-23T01:40:22.288Z,97181.40
2017-11-23T01:40:53.901Z,97180.96
2017-11-23T01:41:25.505Z,97185.20
2017-11-23T01:41:57.108Z,97183.09
2017-11-23T01:42:28.890Z,97185.20
2017-11-23T01:43:00.533Z,97182.66
2017-11-23T01:43:32.175Z,97191.59
2017-11-23T01:44:03.817Z,97188.64
2017-11-23T01:44:35.428Z,97186.06
2017-11-23T01:45:07.041Z,97186.50
2017-11-23T01:45:38.649Z,97184.38
2017-11-23T01:46:10.385Z,97183.97
2017-11-23T01:46:42.032Z,97186.16
2017-11-23T01:47:13.667Z,97180.66
2017-11-23T01:47:45.310Z,97179.80
2017-11-23T01:48:16.973Z,97184.12
2017-11-23T01:48:48.593Z,97181.16
2017-11-23T01:49:20.237Z,97180.75
2017-11-23T01:49:51.877Z,97185.43
2017-11-23T01:50:23.520Z,97186.69
2017-11-23T01:50:55.161Z,97185.85
2017-11-23T01:51:26.820Z,97186.70
2017-11-23T01:51:58.444Z,97188.47
2017-11-23T01:52:30.049Z,97190.12
2017-11-23T01:53:01.728Z,97185.08
2017-11-23T01:53:33.371Z,97187.65
2017-11-23T01:54:05.012Z,97192.73
2017-11-23T01:54:36.617Z,97193.93
2017-11-23T01:55:08.225Z,97186.70
2017-11-23T01:55:39.844Z,97193.91
2017-11-23T01:56:11.580Z,97189.27
2017-11-23T01:56:43.184Z,97188.82
2017-11-23T01:57:14.788Z,97188.41
2017-11-23T01:57:46.506Z,97185.87
2017-11-23T01:58:18.160Z,97189.31
2017-11-23T01:58:49.813Z,97186.36
2017-11-23T01:59:21.473Z,97185.94
2017-11-23T01:59:53.093Z,97183.81
2017-11-23T02:00:25.027Z,97184.66
2017-11-23T02:00:56.653Z,97182.97
2017-11-23T02:01:28.262Z,97183.45
2017-11-23T02:01:59.873Z,97185.52
2017-11-23T02:02:31.590Z,97188.50
2017-11-23T02:03:03.201Z,97184.20
2017-11-23T02:03:34.819Z,97186.27
2017-11-23T02:04:06.469Z,97187.13
2017-11-23T02:04:38.077Z,97189.68
2017-11-23T02:05:09.801Z,97187.55
2017-11-23T02:05:41.442Z,97191.38
2017-11-23T02:06:13.284Z,97194.41
2017-11-23T02:06:44.903Z,97185.00
2017-11-23T02:07:16.509Z,97190.88
2017-11-23T02:07:48.116Z,97193.00
2017-11-23T02:08:19.958Z,97184.54
2017-11-23T02:08:51.620Z,97193.83
2017-11-23T02:09:23.242Z,97187.42
2017-11-23T02:09:54.884Z,97189.91
2017-11-23T02:10:26.525Z,97188.28
2017-11-23T02:10:58.144Z,97180.58
2017-11-23T02:11:29.753Z,97184.89
2017-11-23T02:12:01.413Z,97184.54
2017-11-23T02:12:33.022Z,97184.91
2017-11-23T02:13:04.737Z,97181.56
2017-11-23T02:13:36.377Z,97186.61
2017-11-23T02:14:08.046Z,97178.02
2017-11-23T02:14:39.669Z,97181.91
2017-11-23T02:15:11.284Z,97183.59
2017-11-23T02:15:42.901Z,97186.92
2017-11-23T02:16:14.512Z,97183.50
2017-11-23T02:16:46.129Z,97183.95
2017-11-23T02:17:17.870Z,97178.00
2017-11-23T02:17:49.512Z,97178.76
2017-11-23T02:18:21.154Z,97183.02
2017-11-23T02:18:52.796Z,97183.09
2017-11-23T02:19:24.447Z,97183.02
2017-11-23T02:19:56.080Z,97180.11
2017-11-23T02:20:27.722Z,97171.12
2017-11-23T02:20:59.364Z,97180.11
2017-11-23T02:21:31.005Z,97175.86
2017-11-23T02:22:02.647Z,97177.92
2017-11-23T02:22:34.293Z,97182.59
2017-11-23T02:23:05.929Z,97172.34
2017-11-23T02:23:37.582Z,97168.98
2017-11-23T02:24:09.215Z,97169.89
2017-11-23T02:24:40.857Z,97174.14
2017-11-23T02:25:12.499Z,97174.16
2017-11-23T02:25:44.141Z,97172.38
2017-11-23T02:26:15.783Z,97170.27
2017-11-23T02:26:47.428Z,97164.80
2017-11-23T02:27:19.098Z,97172.46
2017-11-23T02:27:50.716Z,97169.89
2017-11-23T02:28:22.351Z,97179.30
2017-11-23T02:28:53.993Z,97179.30
2017-11-23T02:29:25.634Z,97175.03
2017-11-23T02:29:57.273Z,97173.81
2017-11-23T02:30:28.916Z,97175.45
2017-11-23T02:31:00.561Z,97170.34
2017-11-23T02:31:32.202Z,97175.89
2017-11-23T02:32:03.842Z,97175.47
2017-11-23T02:32:35.488Z,97177.59
2017-11-23T02:33:07.128Z,97170.44
2017-11-23T02:33:38.769Z,97179.37
2017-11-23T02:34:10.411Z,97181.98
2017-11-23T02:34:42.056Z,97180.71
2017-11-23T02:35:13.699Z,97185.39
2017-11-23T02:35:45.338Z,97178.55
2017-11-23T02:36:16.950Z,97176.48
2017-11-23T02:36:48.580Z,97178.21
2017-11-23T02:37:20.197Z,97176.55
2017-11-23T02:37:51.804Z,97174.80
2017-11-23T02:38:23.461Z,97179.05
2017-11-23T02:38:55.194Z,97176.06
2017-11-23T02:39:26.831Z,97170.89
2017-11-23T02:39:58.446Z,97169.16
2017-11-23T02:40:30.057Z,97172.16
2017-11-23T02:41:01.661Z,97174.28
2017-11-23T02:41:33.401Z,97170.85
2017-11-23T02:42:05.014Z,97171.31
2017-11-23T02:42:36.625Z,97169.16
2017-11-23T02:43:08.505Z,97168.73
2017-11-23T02:43:40.273Z,97170.45
2017-11-23T02:44:11.895Z,97165.77
2017-11-23T02:44:43.511Z,97167.11
2017-11-23T02:45:15.126Z,97167.97
2017-11-23T02:45:46.741Z,97162.51
2017-11-23T02:46:18.356Z,97161.60
2017-11-23T02:46:49.969Z,97163.78
2017-11-23T02:47:21.581Z,97163.37
2017-11-23T02:47:53.189Z,97156.08
2017-11-23T02:48:24.818Z,97155.66
2017-11-23T02:48:56.429Z,97158.95
2017-11-23T02:49:28.048Z,97157.65
2017-11-23T02:49:59.667Z,97155.09
2017-11-23T02:50:31.310Z,97155.88
2017-11-23T02:51:02.920Z,97152.55
2017-11-23T02:51:34.594Z,97152.98
2017-11-23T02:52:06.262Z,97149.17
2017-11-23T02:52:37.887Z,97144.97
2017-11-23T02:53:09.517Z,97142.37
2017-11-23T02:53:41.162Z,97144.48
2017-11-23T02:54:12.773Z,97142.81
2017-11-23T02:54:44.382Z,97148.80
2017-11-23T02:55:15.992Z,97150.13
2017-11-23T02:55:47.729Z,97140.81
2017-11-23T02:56:19.333Z,97148.50
2017-11-23T02:56:50.944Z,97144.67
2017-11-23T02:57:22.596Z,97149.80
2017-11-23T02:57:54.201Z,97145.59
2017-11-23T02:58:25.939Z,97143.94
2017-11-23T02:58:57.550Z,97141.44
2017-11-23T02:59:29.224Z,97142.23
2017-11-23T03:00:00.867Z,97143.52
2017-11-23T03:00:32.506Z,97137.63
2017-11-23T03:01:04.113Z,97141.39
2017-11-23T03:01:35.729Z,97139.69
2017-11-23T03:02:07.349Z,97140.60
2017-11-23T03:02:39.027Z,97144.42
2017-11-23T03:03:10.636Z,97139.74
2017-11-23T03:03:42.253Z,97146.89
2017-11-23T03:04:14.000Z,97145.62
2017-11-23T03:04:45.608Z,97151.89
2017-11-23T03:05:17.217Z,97148.30
2017-11-23T03:05:48.868Z,97145.33
2017-11-23T03:06:20.477Z,97144.50
2017-11-23T03:06:52.209Z,97149.34
2017-11-23T03:07:24.038Z,97145.27
2017-11-23T03:07:55.649Z,97148.71
2017-11-23T03:08:27.297Z,97139.41
2017-11-23T03:08:58.904Z,97139.93
2017-11-23T03:09:30.726Z,97140.88
2017-11-23T03:10:02.373Z,97140.45
2017-11-23T03:10:34.009Z,97137.41
2017-11-23T03:11:05.657Z,97143.42
2017-11-23T03:11:37.293Z,97144.66
2017-11-23T03:12:08.935Z,97145.07
2017-11-23T03:12:40.545Z,97141.33
2017-11-23T03:13:12.223Z,97146.06
2017-11-23T03:13:43.861Z,97140.06
2017-11-23T03:14:15.504Z,97140.16
2017-11-23T03:14:47.145Z,97140.57
2017-11-23T03:15:18.787Z,97146.09
2017-11-23T03:15:50.397Z,97149.57
2017-11-23T03:16:22.005Z,97141.50
2017-11-23T03:16:53.660Z,97146.95
2017-11-23T03:17:25.264Z,97148.19
2017-11-23T03:17:56.996Z,97153.33
2017-11-23T03:18:28.604Z,97154.62
2017-11-23T03:19:00.217Z,97156.32
2017-11-23T03:19:31.824Z,97150.80
2017-11-23T03:20:03.564Z,97150.00
2017-11-23T03:20:35.177Z,97152.91
2017-11-23T03:21:06.792Z,97154.09
2017-11-23T03:21:38.396Z,97156.63
2017-11-23T03:22:10.041Z,97151.52
2017-11-23T03:22:41.773Z,97159.97
2017-11-23T03:23:13.416Z,97151.45
2017-11-23T03:23:45.058Z,97156.55
2017-11-23T03:24:16.665Z,97158.34
2017-11-23T03:24:48.344Z,97160.05
2017-11-23T03:25:19.983Z,97154.48
2017-11-23T03:25:51.593Z,97160.03
2017-11-23T03:26:23.199Z,97153.58
2017-11-23T03:26:54.908Z,97156.20
2017-11-23T03:27:26.514Z,97159.16
2017-11-23T03:27:58.121Z,97152.80
2017-11-23T03:28:29.835Z,97158.77
2017-11-23T03:29:01.479Z,97155.86
2017-11-23T03:29:33.118Z,97160.11
2017-11-23T03:30:04.786Z,97157.55
2017-11-23T03:30:36.409Z,97155.80
2017-11-23T03:31:08.054Z,97154.44
2017-11-23T03:31:39.685Z,97157.05
2017-11-23T03:32:11.329Z,97159.17
2017-11-23T03:32:42.936Z,97153.16
2017-11-23T03:33:14.548Z,97151.87
2017-11-23T03:33:46.156Z,97156.94
2017-11-23T03:34:17.896Z,97159.49
2017-11-23T03:34:49.537Z,97156.53
2017-11-23T03:35:21.184Z,97158.63
2017-11-23T03:35:52.821Z,97150.14
2017-11-23T03:36:24.479Z,97153.56
2017-11-23T03:36:56.144Z,97148.88
2017-11-23T03:37:27.748Z,97148.44
2017-11-23T03:37:59.388Z,97150.98
2017-11-23T03:38:30.992Z,97148.00
2017-11-23T03:39:02.608Z,97146.92
2017-11-23T03:39:34.218Z,97153.53
2017-11-23T03:40:05.864Z,97156.47
2017-11-23T03:40:37.606Z,97155.66
2017-11-23T03:41:09.241Z,97151.33
2017-11-23T03:41:40.882Z,97150.45
2017-11-23T03:42:12.524Z,97149.13
2017-11-23T03:42:44.156Z,97147.42
2017-11-23T03:43:15.765Z,97148.67
2017-11-23T03:43:47.369Z,97151.59
2017-11-23T03:44:19.092Z,97146.98
2017-11-23T03:44:50.732Z,97153.71
2017-11-23T03:45:22.392Z,97147.31
2017-11-23T03:45:54.004Z,97150.27
2017-11-23T03:46:25.609Z,97150.52
2017-11-23T03:46:57.220Z,97149.42
2017-11-23T03:47:28.952Z,97145.30
2017-11-23T03:48:00.584Z,97145.42
2017-11-23T03:48:32.227Z,97144.56
2017-11-23T03:49:03.838Z,97147.02
2017-11-23T03:49:35.444Z,97146.53
2017-11-23T03:50:07.071Z,97142.56
2017-11-23T03:50:38.684Z,97139.94
2017-11-23T03:51:10.301Z,97139.69
2017-11-23T03:51:41.913Z,97142.89
2017-11-23T03:52:13.516Z,97136.66
2017-11-23T03:52:45.362Z,97140.92
2017-11-23T03:53:17.004Z,97133.00
2017-11-23T03:53:48.646Z,97136.02
2017-11-23T03:54:20.287Z,97138.62
2017-11-23T03:54:51.901Z,97132.39
2017-11-23T03:55:23.512Z,97130.03
2017-11-23T03:55:55.169Z,97133.92
2017-11-23T03:56:26.789Z,97132.58
2017-11-23T03:56:58.396Z,97131.22
2017-11-23T03:57:30.002Z,97129.84
2017-11-23T03:58:01.609Z,97132.69
2017-11-23T03:58:34.078Z,97135.55
2017-11-23T03:59:05.702Z,97132.86
2017-11-23T03:59:37.321Z,97129.78
2017-11-23T04:00:08.958Z,97125.08
2017-11-23T04:00:40.604Z,97131.58
2017-11-23T04:01:12.249Z,97131.32
2017-11-23T04:01:43.889Z,97128.10
2017-11-23T04:02:15.530Z,97127.86
2017-11-23T04:02:47.137Z,97124.50
2017-11-23T04:03:18.748Z,97120.33
2017-11-23T04:03:50.405Z,97119.99
2017-11-23T04:04:22.021Z,97122.13
2017-11-23T04:04:53.641Z,97122.65
2017-11-23T04:05:25.382Z,97122.72
2017-11-23T04:05:56.990Z,97127.02
2017-11-23T04:06:28.601Z,97122.84
2017-11-23T04:07:00.204Z,97124.63
2017-11-23T04:07:31.813Z,97121.65
2017-11-23T04:08:03.420Z,97119.55
2017-11-23T04:08:35.028Z,97125.51
2017-11-23T04:09:06.681Z,97118.27
2017-11-23T04:09:38.517Z,97115.79
2017-11-23T04:10:10.121Z,97119.66
2017-11-23T04:10:41.724Z,97118.38
2017-11-23T04:11:13.443Z,97122.26
2017-11-23T04:11:45.052Z,97117.61
2017-11-23T04:12:16.657Z,97119.79
2017-11-23T04:12:48.268Z,97116.86
2017-11-23T04:13:19.873Z,97119.73
2017-11-23T04:13:51.485Z,97116.77
2017-11-23T04:14:23.133Z,97114.28
2017-11-23T04:14:54.737Z,97119.03
2017-11-23T04:15:26.578Z,97119.47
2017-11-23T04:15:58.224Z,97121.97
2017-11-23T04:16:29.861Z,97125.36
2017-11-23T04:17:01.508Z,97117.76
2017-11-23T04:17:33.147Z,97120.22
2017-11-23T04:18:04.757Z,97119.39
2017-11-23T04:18:36.360Z,97123.72
2017-11-23T04:19:08.071Z,97126.27
2017-11-23T04:19:39.712Z,97121.11
2017-11-23T04:20:11.342Z,97122.45
2017-11-23T04:20:42.949Z,97122.98
2017-11-23T04:21:14.557Z,97124.23
2017-11-23T04:21:46.281Z,97125.97
2017-11-23T04:22:17.937Z,97129.38
2017-11-23T04:22:49.562Z,97123.44
2017-11-23T04:23:21.169Z,97127.33
2017-11-23T04:23:52.789Z,97124.42
2017-11-23T04:24:24.393Z,97121.41
2017-11-23T04:24:56.132Z,97121.47
2017-11-23T04:25:27.776Z,97125.78
2017-11-23T04:26:00.114Z,97125.31
2017-11-23T04:26:31.980Z,97123.19
2017-11-23T04:27:03.608Z,97123.17
2017-11-23T04:27:35.221Z,97119.36
2017-11-23T04:28:06.845Z,97120.28
2017-11-23T04:28:38.472Z,97125.38
2017-11-23T04:29:10.189Z,97118.52
2017-11-23T04:29:41.831Z,97124.90
2017-11-23T04:30:13.443Z,97123.59
2017-11-23T04:30:45.049Z,97115.97
2017-11-23T04:31:16.656Z,97114.67
2017-11-23T04:31:48.260Z,97117.66
2017-11-23T04:32:19.869Z,97119.86
2017-11-23T04:32:51.512Z,97121.57
2017-11-23T04:33:23.325Z,97121.20
2017-11-23T04:33:54.966Z,97113.16
2017-11-23T04:34:26.572Z,97114.00
2017-11-23T04:34:58.180Z,97116.97
2017-11-23T04:35:29.892Z,97114.88
2017-11-23T04:36:01.501Z,97119.13
2017-11-23T04:36:33.119Z,97113.65
2017-11-23T04:37:04.764Z,97110.20
2017-11-23T04:37:36.369Z,97112.37
2017-11-23T04:38:08.101Z,97109.77
2017-11-23T04:38:39.743Z,97119.56
2017-11-23T04:39:11.353Z,97117.39
2017-11-23T04:39:43.334Z,97108.50
2017-11-23T04:40:14.940Z,97114.44
2017-11-23T04:40:46.545Z,97117.42
2017-11-23T04:41:18.281Z,97106.87
2017-11-23T04:41:49.898Z,97117.14
2017-11-23T04:42:21.505Z,97115.06
2017-11-23T04:42:53.113Z,97116.33
2017-11-23T04:43:24.827Z,97114.25
2017-11-23T04:43:56.437Z,97115.88
2017-11-23T04:44:28.040Z,97107.63
2017-11-23T04:44:59.685Z,97106.70
2017-11-23T04:45:31.395Z,97107.17
2017-11-23T04:46:03.037Z,97111.03
2017-11-23T04:46:34.682Z,97101.70
2017-11-23T04:47:06.320Z,97101.36
2017-11-23T04:47:37.962Z,97095.88
2017-11-23T04:48:09.605Z,97097.77
2017-11-23T04:48:41.229Z,97101.75
2017-11-23T04:49:12.849Z,97091.02
2017-11-23T04:49:44.456Z,97086.97
2017-11-23T04:50:16.108Z,97092.25
2017-11-23T04:50:47.716Z,97099.62
2017-11-23T04:51:19.457Z,97089.55
2017-11-23T04:51:51.098Z,97088.84
2017-11-23T04:52:22.740Z,97093.98
2017-11-23T04:52:54.381Z,97099.50
2017-11-23T04:53:25.987Z,97101.21
2017-11-23T04:53:57.597Z,97096.16
2017-11-23T04:54:29.307Z,97105.45
2017-11-23T04:55:00.949Z,97101.61
2017-11-23T04:55:32.597Z,97108.41
2017-11-23T04:56:04.233Z,97105.84
2017-11-23T04:56:35.874Z,97107.98
2017-11-23T04:57:07.484Z,97099.91
2017-11-23T04:57:39.097Z,97099.41
2017-11-23T04:58:10.701Z,97106.20
2017-11-23T04:58:42.443Z,97105.27
2017-11-23T04:59:14.085Z,97107.38
2017-11-23T04:59:45.726Z,97104.82
2017-11-23T05:00:17.376Z,97103.92
2017-11-23T05:00:49.021Z,97107.70
2017-11-23T05:01:20.651Z,97106.00
2017-11-23T05:01:52.257Z,97102.96
2017-11-23T05:02:23.869Z,97104.62
2017-11-23T05:02:55.579Z,97101.56
2017-11-23T05:03:27.220Z,97102.42
2017-11-23T05:03:58.824Z,97104.53
2017-11-23T05:04:30.437Z,97112.22
2017-11-23T05:05:02.045Z,97109.32
2017-11-23T05:05:33.656Z,97114.42
2017-11-23T05:06:05.429Z,97119.09
2017-11-23T05:06:37.071Z,97116.97
2017-11-23T05:07:08.715Z,97115.28
2017-11-23T05:07:40.356Z,97118.75
2017-11-23T05:08:11.997Z,97122.19
2017-11-23T05:08:43.605Z,97115.88
2017-11-23T05:09:15.232Z,97122.67
2017-11-23T05:09:46.849Z,97121.41
2017-11-23T05:10:18.465Z,97126.59
2017-11-23T05:10:50.207Z,97127.36
2017-11-23T05:11:21.852Z,97124.45
2017-11-23T05:11:53.466Z,97129.95
2017-11-23T05:12:25.072Z,97132.11
2017-11-23T05:12:56.676Z,97131.61
2017-11-23T05:13:28.416Z,97131.19
2017-11-23T05:14:00.022Z,97129.48
2017-11-23T05:14:31.632Z,97127.80
2017-11-23T05:15:03.341Z,97135.88
2017-11-23T05:15:34.985Z,97124.84
2017-11-23T05:16:06.616Z,97131.22
2017-11-23T05:16:38.272Z,97129.93
2017-11-23T05:17:09.910Z,97131.98
2017-11-23T05:17:41.522Z,97135.05
2017-11-23T05:18:13.125Z,97132.11
2017-11-23T05:18:44.835Z,97138.88
2017-11-23T05:19:16.444Z,97136.80
2017-11-23T05:19:48.048Z,97139.80
2017-11-23T05:20:19.761Z,97136.84
2017-11-23T05:20:51.368Z,97137.67
2017-11-23T05:21:22.972Z,97137.67
2017-11-23T05:21:54.686Z,97132.14
2017-11-23T05:22:26.292Z,97136.39
2017-11-23T05:22:57.914Z,97142.75
2017-11-23T05:23:29.521Z,97134.66
2017-11-23T05:24:01.251Z,97138.41
2017-11-23T05:24:32.897Z,97129.95
2017-11-23T05:25:04.545Z,97133.31
2017-11-23T05:25:36.178Z,97132.02
2017-11-23T05:26:07.789Z,97127.77
2017-11-23T05:26:39.396Z,97126.87
2017-11-23T05:27:11.004Z,97133.67
2017-11-23T05:27:42.612Z,97131.10
2017-11-23T05:28:14.217Z,97134.08
2017-11-23T05:28:45.860Z,97128.62
2017-11-23T05:29:17.514Z,97129.47
2017-11-23T05:29:49.120Z,97126.87
2017-11-23T05:30:20.957Z,97131.52
2017-11-23T05:30:52.599Z,97130.19
2017-11-23T05:31:24.244Z,97130.59
2017-11-23T05:31:55.883Z,97134.42
2017-11-23T05:32:27.525Z,97135.18
2017-11-23T05:32:59.166Z,97131.86
2017-11-23T05:33:30.811Z,97131.86
2017-11-23T05:34:02.450Z,97133.58
2017-11-23T05:34:34.057Z,97129.38
2017-11-23T05:35:05.733Z,97138.25
2017-11-23T05:35:37.341Z,97131.02
2017-11-23T05:36:08.954Z,97133.55
2017-11-23T05:36:40.560Z,97135.69
2017-11-23T05:37:12.301Z,97133.55
2017-11-23T05:37:43.943Z,97132.70
2017-11-23T05:38:15.585Z,97135.23
2017-11-23T05:38:47.233Z,97137.30
2017-11-23T05:39:18.868Z,97137.28
2017-11-23T05:39:50.472Z,97131.34
2017-11-23T05:40:22.152Z,97138.92
2017-11-23T05:40:53.794Z,97142.73
2017-11-23T05:41:25.405Z,97136.77
2017-11-23T05:41:57.013Z,97134.66
2017-11-23T05:42:28.621Z,97137.63
2017-11-23T05:43:00.363Z,97137.62
2017-11-23T05:43:31.969Z,97135.92
2017-11-23T05:44:03.576Z,97140.67
2017-11-23T05:44:35.288Z,97130.06
2017-11-23T05:45:06.952Z,97133.03
2017-11-23T05:45:38.571Z,97132.16
2017-11-23T05:46:10.180Z,97136.27
2017-11-23T05:46:41.789Z,97135.84
2017-11-23T05:47:13.497Z,97134.56
2017-11-23T05:47:45.106Z,97138.83
2017-11-23T05:48:16.725Z,97141.78
2017-11-23T05:48:48.328Z,97141.78
2017-11-23T05:49:20.066Z,97141.78
2017-11-23T05:49:51.707Z,97144.27
2017-11-23T05:50:23.367Z,97146.91
2017-11-23T05:50:54.991Z,97149.47
2017-11-23T05:51:26.601Z,97143.93
2017-11-23T05:51:58.213Z,97145.63
2017-11-23T05:52:29.824Z,97151.56
2017-11-23T05:53:01.559Z,97146.46
2017-11-23T05:53:33.163Z,97143.47
2017-11-23T05:54:04.768Z,97147.73
2017-11-23T05:54:36.484Z,97145.20
2017-11-23T05:55:08.125Z,97151.55
2017-11-23T05:55:39.792Z,97150.73
2017-11-23T05:56:11.410Z,97149.94
2017-11-23T05:56:43.052Z,97150.31
2017-11-23T05:57:14.659Z,97151.98
2017-11-23T05:57:46.281Z,97147.72
2017-11-23T05:58:17.892Z,97149.87
2017-11-23T05:58:49.620Z,97148.58
2017-11-23T05:59:21.228Z,97147.73
2017-11-23T05:59:52.837Z,97149.85
2017-11-23T06:00:24.445Z,97151.50
2017-11-23T06:00:56.088Z,97148.52
2017-11-23T06:01:27.828Z,97152.34
2017-11-23T06:01:59.471Z,97155.33
2017-11-23T06:02:31.961Z,97143.89
2017-11-23T06:03:03.642Z,97148.58
2017-11-23T06:03:35.268Z,97150.70
2017-11-23T06:04:06.915Z,97149.02
2017-11-23T06:04:38.602Z,97149.84
2017-11-23T06:05:11.078Z,97148.58
2017-11-23T06:05:42.807Z,97149.42
2017-11-23T06:06:14.423Z,97149.87
2017-11-23T06:06:46.029Z,97155.33
2017-11-23T06:07:17.632Z,97150.22
2017-11-23T06:07:50.433Z,97153.59
2017-11-23T06:08:22.045Z,97149.79
2017-11-23T06:08:53.712Z,97147.72
2017-11-23T06:09:26.074Z,97148.08
2017-11-23T06:09:58.588Z,97145.19
2017-11-23T06:10:30.345Z,97147.73
2017-11-23T06:11:01.994Z,97151.58
2017-11-23T06:11:33.633Z,97151.98